LFQGLFLC

Guest
Details From LFQG - Nevers Fourchambault
To LFLC - Clermont-Ferrand_Auvergne
Flight Number -
Tags generated
Created
Modified
Stats Distance 73 nm / 135 km
Max Altitude 9,700 ft / 2,957 m
Waypoints 3
Social Downloads 2
Likes 0
Share VATSIM

Download

Looking for another format? Having issues loading an existing format? Contact us
Advertisement - Login to hide

Notes

Basic altitude profile: - Ascent Rate: 2500ft/min - Ascent Speed: 250kts - Cruise Altitude: 25000ft - Cruise Speed: 420kts - Descent Rate: 1500ft/min - Descent Speed: 250kts Options: - Use NATs: yes - Use PACOTS: yes - Use low airways: yes - Use high airways: yes

Route

LFQG KUKOR LFLC

ID Type Via Altitude Latitude Longitude Leg Dist Tot Dist Heading (true) Name
O LFQG APT - 0 ft / 0 m 47.00290˚ 3.11348˚ - 0 nm - Nevers Fourchambault
KUKOR FIX - 9,700 ft / 2,957 m 46.54194˚ 3.12917˚ 27 nm 27 nm 179° / 179° -
O LFLC APT - 0 ft / 0 m 45.78671˚ 3.16997˚ 45 nm 73 nm 178° / 178° Clermont-Ferrand_Auvergne

Altitude Profile

Advertisement - Login to hide

LFQG

Details ICAO LFQG (NVS)
Name Nevers Fourchambault
Region France
Timezone Europe/Paris (UTC+1.0)
Stats Elevation 602 ft / 183 m (AMSL)
Location 47.002896° 3.113485°
Runways 2
Magnetic Variation 0.914° E

METAR

LFQG 181800Z AUTO 01007KT 9999 FEW019 OVC030 06/03 Q1028

Decode

TAF

Not found

Departure Runways

ID Width Length Bearing (true) Bearing (mag) Surface Threshold Offset Overrun Length
12 98 ft / 30 m 5,333 ft / 1,626 m 122.03° 121.12° Asphalt 525 ft / 160 m 0 ft / 0 m
12L 197 ft / 60 m 3,053 ft / 931 m 122.04° 121.13° Grass 0 ft / 0 m 0 ft / 0 m
30 98 ft / 30 m 5,333 ft / 1,626 m 302.04° 301.13° Asphalt 1,280 ft / 390 m 0 ft / 0 m
30R 197 ft / 60 m 3,053 ft / 931 m 302.04° 301.13° Grass 0 ft / 0 m 0 ft / 0 m

LFLC

Details ICAO LFLC (CFE)
Name Clermont-Ferrand_Auvergne
Region France
Timezone Europe/Paris (UTC+1.0)
Stats Elevation 1,089 ft / 332 m (AMSL)
Location 45.786712° 3.169967°
Runways 1
Magnetic Variation 0.981° E

METAR

LFLC 181830Z AUTO 35005KT 320V020 9999 OVC030 05/02 Q1026 BECMG OVC010

Decode

TAF

TAF LFLC 181400Z 1815/1915 33007KT 9999 SCT020 BKN035 BECMG 1815/1816 36010KT BKN030 BECMG 1817/1819 OVC010

Decode

Destination Runways

ID Width Length Bearing (true) Bearing (mag) Surface Threshold Offset Overrun Length
08 148 ft / 45 m 9,878 ft / 3,011 m 81.95° 80.97° Asphalt 0 ft / 0 m 0 ft / 0 m
26 148 ft / 45 m 9,878 ft / 3,011 m 261.98° 261.00° Asphalt 476 ft / 145 m 0 ft / 0 m

Approach Navaids

Runway Type Ident Frequency Range Bearing (true) Bearing (mag) Slope Elevation
26 Localiser CF 111.10 MHz 27 nm / 50 km 261.98° 261.00° - 1,089 ft / 332 m (AMSL)
26 Glidescope CF 111.10 MHz 27 nm / 50 km 261.98° 261.00° 3.00° 1,089 ft / 332 m (AMSL)
26 DME CF 111.10 MHz 27 nm / 50 km - - - 1,089 ft / 332 m (AMSL)